createdAt,value
2019-04-03T00:26:30.757Z,93.98
2019-04-03T00:26:30.835Z,94.08
2019-04-03T00:26:31.071Z,93.98
2019-04-03T00:26:31.208Z,94.17
2019-04-03T00:26:31.817Z,94.17
2019-04-03T00:26:32.392Z,93.98
2019-04-03T00:26:32.997Z,94.08
2019-04-03T00:26:33.589Z,94.08
2019-04-03T00:27:28.093Z,94.08
2019-04-03T00:27:28.668Z,94.08
2019-04-03T00:27:29.273Z,94.08
2019-04-03T00:27:29.869Z,93.70
2019-04-03T00:27:30.468Z,94.08
2019-04-03T00:27:31.178Z,93.70
2019-04-03T00:27:31.666Z,94.08
2019-04-03T00:27:32.286Z,93.79
2019-04-03T00:28:25.725Z,94.65
2019-04-03T00:28:26.325Z,94.65
2019-04-03T00:28:26.921Z,94.37
2019-04-03T00:28:27.523Z,94.37
2019-04-03T00:28:28.120Z,94.37
2019-04-03T00:28:28.720Z,94.46
2019-04-03T00:28:29.321Z,94.37
2019-04-03T00:28:30.034Z,94.56
2019-04-03T00:29:24.407Z,95.12
2019-04-03T00:29:25.001Z,95.03
2019-04-03T00:29:25.601Z,95.03
2019-04-03T00:29:26.196Z,95.12
2019-04-03T00:29:26.801Z,94.93
2019-04-03T00:29:27.399Z,94.93
2019-04-03T00:29:27.996Z,94.93
2019-04-03T00:29:28.599Z,95.03
2019-04-03T00:30:23.077Z,94.93
2019-04-03T00:30:23.674Z,94.84
2019-04-03T00:30:24.277Z,94.84
2019-04-03T00:30:24.875Z,94.93
2019-04-03T00:30:25.474Z,94.84
2019-04-03T00:30:26.073Z,94.93
2019-04-03T00:30:26.831Z,94.93
2019-04-03T00:30:27.275Z,94.74
2019-04-03T00:31:23.321Z,94.74
2019-04-03T00:31:23.336Z,94.84
2019-04-03T00:31:23.343Z,94.84
2019-04-03T00:31:23.853Z,94.74
2019-04-03T00:31:24.151Z,94.74
2019-04-03T00:31:24.851Z,94.84
2019-04-03T00:31:25.350Z,94.74
2019-04-03T00:31:25.961Z,94.84
2019-04-03T00:32:19.406Z,95.79
2019-04-03T00:32:20.086Z,95.79
2019-04-03T00:32:21.729Z,95.70
2019-04-03T00:32:21.765Z,95.70
2019-04-03T00:32:23.326Z,95.70
2019-04-03T00:32:23.369Z,95.79
2019-04-03T00:32:23.379Z,95.70
2019-04-03T00:32:23.845Z,95.79
2019-04-03T00:33:17.081Z,95.41
2019-04-03T00:33:17.653Z,95.51
2019-04-03T00:33:18.253Z,95.60
2019-04-03T00:33:18.901Z,95.51
2019-04-03T00:33:19.454Z,95.51
2019-04-03T00:33:20.054Z,95.51
2019-04-03T00:33:22.982Z,95.41
2019-04-03T00:33:23.037Z,95.32
2019-04-03T00:34:14.710Z,95.51
2019-04-03T00:34:15.306Z,95.79
2019-04-03T00:34:15.910Z,95.79
2019-04-03T00:34:16.609Z,95.60
2019-04-03T00:34:17.106Z,95.70
2019-04-03T00:34:17.743Z,95.60
2019-04-03T00:34:18.309Z,95.89
2019-04-03T00:34:18.909Z,95.79
2019-04-03T00:35:13.387Z,96.17
2019-04-03T00:35:13.984Z,96.08
2019-04-03T00:35:14.699Z,96.65
2019-04-03T00:35:15.183Z,96.36
2019-04-03T00:35:15.813Z,96.55
2019-04-03T00:35:16.383Z,96.27
2019-04-03T00:35:16.982Z,96.17
2019-04-03T00:35:17.583Z,96.27
2019-04-03T00:36:11.088Z,96.55
2019-04-03T00:36:11.632Z,96.75
2019-04-03T00:36:12.246Z,96.65
2019-04-03T00:36:12.836Z,96.75
2019-04-03T00:36:13.434Z,96.84
2019-04-03T00:36:14.033Z,96.94
2019-04-03T00:36:14.631Z,96.84
2019-04-03T00:36:15.232Z,97.03
2019-04-03T00:37:09.712Z,97.13
2019-04-03T00:37:10.309Z,97.22
2019-04-03T00:37:10.909Z,97.13
2019-04-03T00:37:11.511Z,97.31
2019-04-03T00:37:12.111Z,97.13
2019-04-03T00:37:12.709Z,97.31
2019-04-03T00:37:13.307Z,97.13
2019-04-03T00:37:14.073Z,97.13
2019-04-03T00:38:08.410Z,98.55
2019-04-03T00:38:08.989Z,97.99
2019-04-03T00:38:09.587Z,97.99
2019-04-03T00:38:10.186Z,98.08
2019-04-03T00:38:10.790Z,98.08
2019-04-03T00:38:11.384Z,98.27
2019-04-03T00:38:11.988Z,97.89
2019-04-03T00:38:12.588Z,98.08
2019-04-03T00:39:06.040Z,99.03
2019-04-03T00:39:06.639Z,98.65
2019-04-03T00:39:07.240Z,98.84
2019-04-03T00:39:07.837Z,98.84
2019-04-03T00:39:08.437Z,99.41
2019-04-03T00:39:09.038Z,98.94
2019-04-03T00:39:09.637Z,99.60
2019-04-03T00:39:10.236Z,99.41
2019-04-03T00:40:03.696Z,99.32
2019-04-03T00:40:04.289Z,99.32
2019-04-03T00:40:04.890Z,99.51
2019-04-03T00:40:05.489Z,99.51
2019-04-03T00:40:06.089Z,99.51
2019-04-03T00:40:06.693Z,99.51
2019-04-03T00:40:07.290Z,99.51
2019-04-03T00:40:07.888Z,99.51
2019-04-03T00:41:01.349Z,99.13
2019-04-03T00:41:01.940Z,99.03
2019-04-03T00:41:02.542Z,99.03
2019-04-03T00:41:03.140Z,99.03
2019-04-03T00:41:03.739Z,99.13
2019-04-03T00:41:04.340Z,99.03
2019-04-03T00:41:04.941Z,98.84
2019-04-03T00:41:05.664Z,99.22
2019-04-03T00:41:58.999Z,99.22
2019-04-03T00:41:59.594Z,99.22
2019-04-03T00:42:00.195Z,99.41
2019-04-03T00:42:00.794Z,99.22
2019-04-03T00:42:01.393Z,99.32
2019-04-03T00:42:01.993Z,99.41
2019-04-03T00:42:02.592Z,99.22
2019-04-03T00:42:03.296Z,99.41
2019-04-03T00:42:56.649Z,99.22
2019-04-03T00:42:57.244Z,99.32
2019-04-03T00:42:57.849Z,99.22
2019-04-03T00:42:58.443Z,99.22
2019-04-03T00:42:59.043Z,99.32
2019-04-03T00:42:59.644Z,99.41
2019-04-03T00:43:00.398Z,99.41
2019-04-03T00:43:00.842Z,99.41
2019-04-03T00:43:54.871Z,98.65
2019-04-03T00:43:55.129Z,98.65
2019-04-03T00:43:55.522Z,98.65
2019-04-03T00:43:56.096Z,98.74
2019-04-03T00:43:56.696Z,98.74
2019-04-03T00:43:57.296Z,98.65
2019-04-03T00:43:57.895Z,98.74
2019-04-03T00:43:58.496Z,98.65
2019-04-03T00:44:54.698Z,98.08
2019-04-03T00:44:54.699Z,98.08
2019-04-03T00:44:54.739Z,97.99
2019-04-03T00:44:55.002Z,98.08
2019-04-03T00:44:55.376Z,97.89
2019-04-03T00:44:56.085Z,98.27
2019-04-03T00:44:56.576Z,98.27
2019-04-03T00:44:57.236Z,98.46
2019-04-03T00:45:54.044Z,98.84
2019-04-03T00:45:54.143Z,98.60
2019-04-03T00:45:54.537Z,98.65
2019-04-03T00:45:54.563Z,98.60
2019-04-03T00:45:54.666Z,98.94
2019-04-03T00:45:55.198Z,98.65
2019-04-03T00:45:55.395Z,98.60
2019-04-03T00:45:55.847Z,98.65
2019-04-03T00:46:49.303Z,98.98
2019-04-03T00:46:49.900Z,97.99
2019-04-03T00:46:50.575Z,99.17
2019-04-03T00:46:51.101Z,99.17
2019-04-03T00:46:51.716Z,97.93
2019-04-03T00:46:52.299Z,99.03
2019-04-03T00:46:53.874Z,99.03
2019-04-03T00:46:55.179Z,99.22
2019-04-03T00:47:46.956Z,98.03
2019-04-03T00:47:47.551Z,98.13
2019-04-03T00:47:48.152Z,98.22
2019-04-03T00:47:48.856Z,98.03
2019-04-03T00:47:49.353Z,98.03
2019-04-03T00:47:49.954Z,98.03
2019-04-03T00:47:50.551Z,98.03
2019-04-03T00:47:51.151Z,98.41
2019-04-03T00:48:44.628Z,98.32
2019-04-03T00:48:45.270Z,98.98
2019-04-03T00:48:45.803Z,98.03
2019-04-03T00:48:46.402Z,98.60
2019-04-03T00:48:47.004Z,97.84
2019-04-03T00:48:47.605Z,98.13
2019-04-03T00:48:48.208Z,97.84
2019-04-03T00:48:48.804Z,99.08
2019-04-03T00:49:42.260Z,98.03
2019-04-03T00:49:42.855Z,97.93
2019-04-03T00:49:43.455Z,97.93
2019-04-03T00:49:44.055Z,97.74
2019-04-03T00:49:44.656Z,97.84
2019-04-03T00:49:45.255Z,97.74
2019-04-03T00:49:45.912Z,98.13
2019-04-03T00:49:46.457Z,97.93
2019-04-03T00:50:39.911Z,98.60
2019-04-03T00:50:40.507Z,98.03
2019-04-03T00:50:41.108Z,98.03
2019-04-03T00:50:41.707Z,98.22
2019-04-03T00:50:42.306Z,98.60
2019-04-03T00:50:43.142Z,98.03
2019-04-03T00:50:43.506Z,98.03
2019-04-03T00:50:44.107Z,98.13
2019-04-03T00:51:37.564Z,98.50
2019-04-03T00:51:38.199Z,98.69
2019-04-03T00:51:38.759Z,98.50
2019-04-03T00:51:39.363Z,98.69
2019-04-03T00:51:39.958Z,98.50
2019-04-03T00:51:40.557Z,98.50
2019-04-03T00:51:41.158Z,98.50
2019-04-03T00:51:41.757Z,98.50
2019-04-03T00:52:35.330Z,98.60
2019-04-03T00:52:35.811Z,98.69
2019-04-03T00:52:36.456Z,98.60
2019-04-03T00:52:37.011Z,98.60
2019-04-03T00:52:37.614Z,98.60
2019-04-03T00:52:38.210Z,98.69
2019-04-03T00:52:38.812Z,98.60
2019-04-03T00:52:39.411Z,98.60
2019-04-03T00:53:33.913Z,98.41
2019-04-03T00:53:34.486Z,98.60
2019-04-03T00:53:35.160Z,98.69
2019-04-03T00:53:35.684Z,98.69
2019-04-03T00:53:36.286Z,98.60
2019-04-03T00:53:36.884Z,98.60
2019-04-03T00:53:37.484Z,98.60
2019-04-03T00:53:38.084Z,98.79
2019-04-03T00:54:32.565Z,98.79
2019-04-03T00:54:33.216Z,97.84
2019-04-03T00:54:33.760Z,98.03
2019-04-03T00:54:34.406Z,98.88
2019-04-03T00:54:34.961Z,97.93
2019-04-03T00:54:35.560Z,98.79
2019-04-03T00:54:36.161Z,97.93
2019-04-03T00:54:36.762Z,98.88
2019-04-03T00:55:30.340Z,98.88
2019-04-03T00:55:30.822Z,98.13
2019-04-03T00:55:31.446Z,98.32
2019-04-03T00:55:32.014Z,98.13
2019-04-03T00:55:32.613Z,98.88
2019-04-03T00:55:33.214Z,98.98
2019-04-03T00:55:33.889Z,98.41
2019-04-03T00:55:34.412Z,98.79
2019-04-03T00:56:27.894Z,98.03
2019-04-03T00:56:28.465Z,98.88
2019-04-03T00:56:29.067Z,97.93
2019-04-03T00:56:29.665Z,98.32
2019-04-03T00:56:30.265Z,98.98
2019-04-03T00:56:30.867Z,98.03
2019-04-03T00:56:31.492Z,98.13
2019-04-03T00:56:32.262Z,98.60
2019-04-03T00:57:26.413Z,99.08
2019-04-03T00:57:26.777Z,99.08
2019-04-03T00:57:26.898Z,99.08
2019-04-03T00:57:27.317Z,98.88
2019-04-03T00:57:27.985Z,98.79
2019-04-03T00:57:28.520Z,99.55
2019-04-03T00:57:29.303Z,98.98
2019-04-03T00:57:29.718Z,99.27
2019-04-03T00:58:25.515Z,99.93
2019-04-03T00:58:25.519Z,99.84
2019-04-03T00:58:25.775Z,99.99
2019-04-03T00:58:25.817Z,99.74
2019-04-03T00:58:26.220Z,99.99
2019-04-03T00:58:26.232Z,99.99
2019-04-03T00:58:26.772Z,99.93
2019-04-03T00:58:27.372Z,99.84
2019-04-03T00:59:21.871Z,99.74
2019-04-03T00:59:22.447Z,99.84
2019-04-03T00:59:23.104Z,99.74
2019-04-03T00:59:24.685Z,99.84
2019-04-03T00:59:24.714Z,99.84
2019-04-03T00:59:26.346Z,99.99
2019-04-03T00:59:26.387Z,99.84
2019-04-03T00:59:26.816Z,99.84
2019-04-03T01:00:19.587Z,99.99
2019-04-03T01:00:20.100Z,99.99
2019-04-03T01:00:20.702Z,99.99
2019-04-03T01:00:21.300Z,99.74
2019-04-03T01:00:21.905Z,99.93
2019-04-03T01:00:22.500Z,99.99
2019-04-03T01:00:23.106Z,99.99
2019-04-03T01:00:25.971Z,99.84
2019-04-03T01:01:18.185Z,99.08
2019-04-03T01:01:18.774Z,99.08
2019-04-03T01:01:19.375Z,99.08
2019-04-03T01:01:19.976Z,99.08
2019-04-03T01:01:20.576Z,98.98
2019-04-03T01:01:21.178Z,99.17
2019-04-03T01:01:21.774Z,99.27
2019-04-03T01:01:22.515Z,99.27
2019-04-03T01:02:16.548Z,98.41
2019-04-03T01:02:16.799Z,98.13
2019-04-03T01:02:17.028Z,98.69
2019-04-03T01:02:17.628Z,98.13
2019-04-03T01:02:18.227Z,98.69
2019-04-03T01:02:18.827Z,98.13
2019-04-03T01:02:19.501Z,98.13
2019-04-03T01:02:20.028Z,98.22
2019-04-03T01:03:14.506Z,99.27
2019-04-03T01:03:15.101Z,99.08
2019-04-03T01:03:15.912Z,99.46
2019-04-03T01:03:16.303Z,99.08
2019-04-03T01:03:16.901Z,99.46
2019-04-03T01:03:17.501Z,99.08
2019-04-03T01:03:18.189Z,99.27
2019-04-03T01:03:18.701Z,99.27
2019-04-03T01:04:13.206Z,99.74
2019-04-03T01:04:13.778Z,99.99
2019-04-03T01:04:14.467Z,99.99
2019-04-03T01:04:14.979Z,99.74
2019-04-03T01:04:15.583Z,99.93
2019-04-03T01:04:16.179Z,99.55
2019-04-03T01:04:16.778Z,99.84
2019-04-03T01:04:17.378Z,99.74
2019-04-03T01:05:10.834Z,99.99
2019-04-03T01:05:11.430Z,99.99
2019-04-03T01:05:12.031Z,99.99
2019-04-03T01:05:12.816Z,99.99
2019-04-03T01:05:13.229Z,99.99
2019-04-03T01:05:13.831Z,99.99
2019-04-03T01:05:14.430Z,99.99
2019-04-03T01:05:15.138Z,99.99
2019-04-03T01:06:08.485Z,99.99
2019-04-03T01:06:09.082Z,99.99
2019-04-03T01:06:09.684Z,99.99
2019-04-03T01:06:10.405Z,99.99
2019-04-03T01:06:10.883Z,99.99
2019-04-03T01:06:11.552Z,99.99
2019-04-03T01:06:12.082Z,99.99
2019-04-03T01:06:12.681Z,99.99
2019-04-03T01:07:06.139Z,99.99
2019-04-03T01:07:06.758Z,99.99
2019-04-03T01:07:07.334Z,99.99
2019-04-03T01:07:07.934Z,99.99
2019-04-03T01:07:08.534Z,99.99
2019-04-03T01:07:09.134Z,99.99
2019-04-03T01:07:09.733Z,99.99
2019-04-03T01:07:10.332Z,99.99
2019-04-03T01:08:03.788Z,99.99
2019-04-03T01:08:04.388Z,99.99
2019-04-03T01:08:05.115Z,99.99
2019-04-03T01:08:05.587Z,99.99
2019-04-03T01:08:06.236Z,99.99
2019-04-03T01:08:06.840Z,99.99
2019-04-03T01:08:07.396Z,99.99
2019-04-03T01:08:07.987Z,99.65
2019-04-03T01:09:02.623Z,99.99
2019-04-03T01:09:03.062Z,99.99
2019-04-03T01:09:03.696Z,99.99
2019-04-03T01:09:04.261Z,99.99
2019-04-03T01:09:04.860Z,99.99
2019-04-03T01:09:05.462Z,99.99
2019-04-03T01:09:06.060Z,99.99
2019-04-03T01:09:06.659Z,99.99
2019-04-03T01:10:01.141Z,99.65
2019-04-03T01:10:01.738Z,99.84
2019-04-03T01:10:02.355Z,99.93
2019-04-03T01:10:02.935Z,99.74
2019-04-03T01:10:03.640Z,99.74
2019-04-03T01:10:04.134Z,99.99
2019-04-03T01:10:04.745Z,99.74
2019-04-03T01:10:05.337Z,99.74
2019-04-03T01:11:00.425Z,99.99
2019-04-03T01:11:00.937Z,99.99
2019-04-03T01:11:01.022Z,99.99
2019-04-03T01:11:01.612Z,99.99
2019-04-03T01:11:02.311Z,99.99
2019-04-03T01:11:02.813Z,99.99
2019-04-03T01:11:03.413Z,99.99
2019-04-03T01:11:04.011Z,99.99
2019-04-03T01:11:58.783Z,99.99
2019-04-03T01:11:58.785Z,99.99
2019-04-03T01:11:58.792Z,99.99
2019-04-03T01:12:00.875Z,99.99
2019-04-03T01:12:00.901Z,99.99
2019-04-03T01:12:01.119Z,99.99
2019-04-03T01:12:01.234Z,99.99
2019-04-03T01:12:01.668Z,99.99
2019-04-03T01:12:55.222Z,99.99
2019-04-03T01:12:55.959Z,99.99
2019-04-03T01:12:56.419Z,99.99
2019-04-03T01:12:57.019Z,99.99
2019-04-03T01:12:57.618Z,99.99
2019-04-03T01:12:58.219Z,99.99
2019-04-03T01:13:00.028Z,99.99
2019-04-03T01:13:01.365Z,99.99
2019-04-03T01:13:52.877Z,99.99
2019-04-03T01:13:53.470Z,99.99
2019-04-03T01:13:54.070Z,99.99
2019-04-03T01:13:54.670Z,99.99
2019-04-03T01:13:55.270Z,99.99
2019-04-03T01:13:55.874Z,99.99
2019-04-03T01:13:56.474Z,99.99
2019-04-03T01:13:57.069Z,99.84
2019-04-03T01:14:50.644Z,99.99
2019-04-03T01:14:51.122Z,99.99
2019-04-03T01:14:51.722Z,99.99
2019-04-03T01:14:52.321Z,99.99
2019-04-03T01:14:52.921Z,99.99
2019-04-03T01:14:53.522Z,99.99
2019-04-03T01:14:54.121Z,99.99
2019-04-03T01:14:54.721Z,99.99
2019-04-03T01:15:48.181Z,99.65
2019-04-03T01:15:48.775Z,99.93
2019-04-03T01:15:49.373Z,99.65
2019-04-03T01:15:49.973Z,99.93
2019-04-03T01:15:50.574Z,99.74
2019-04-03T01:15:51.174Z,99.74
2019-04-03T01:15:51.776Z,99.84
2019-04-03T01:15:52.372Z,99.93
2019-04-03T01:16:45.944Z,99.99
2019-04-03T01:16:46.426Z,99.99
2019-04-03T01:16:47.029Z,99.84
2019-04-03T01:16:47.626Z,99.99
2019-04-03T01:16:48.227Z,99.99
2019-04-03T01:16:48.826Z,99.99
2019-04-03T01:16:49.424Z,99.84
2019-04-03T01:16:50.027Z,99.99
2019-04-03T01:17:43.482Z,99.46
2019-04-03T01:17:44.083Z,99.65
2019-04-03T01:17:44.677Z,99.55
2019-04-03T01:17:45.284Z,99.36
2019-04-03T01:17:45.876Z,99.55
2019-04-03T01:17:46.551Z,99.65
2019-04-03T01:17:47.079Z,99.55
2019-04-03T01:17:47.719Z,99.46
2019-04-03T01:18:42.157Z,99.99
2019-04-03T01:18:42.753Z,99.99
2019-04-03T01:18:43.352Z,99.99
2019-04-03T01:18:44.081Z,99.99
2019-04-03T01:18:44.551Z,99.99
2019-04-03T01:18:45.187Z,99.99
2019-04-03T01:18:45.752Z,99.99
2019-04-03T01:18:46.385Z,99.99
2019-04-03T01:19:39.810Z,99.99
2019-04-03T01:19:40.405Z,99.99
2019-04-03T01:19:41.005Z,99.99
2019-04-03T01:19:41.604Z,99.99
2019-04-03T01:19:42.336Z,99.99
2019-04-03T01:19:42.807Z,99.99
2019-04-03T01:19:43.504Z,99.99
2019-04-03T01:19:44.004Z,99.99
2019-04-03T01:20:37.530Z,99.99
2019-04-03T01:20:38.057Z,99.99
2019-04-03T01:20:38.746Z,99.99
2019-04-03T01:20:39.256Z,99.99
2019-04-03T01:20:39.856Z,99.99
2019-04-03T01:20:40.457Z,99.99
2019-04-03T01:20:41.071Z,99.99
2019-04-03T01:20:41.658Z,99.99
2019-04-03T01:21:37.183Z,99.99
2019-04-03T01:21:37.198Z,99.99
2019-04-03T01:21:37.436Z,99.99
2019-04-03T01:21:37.545Z,99.99
2019-04-03T01:21:37.575Z,99.99
2019-04-03T01:21:38.109Z,99.99
2019-04-03T01:21:38.707Z,99.99
2019-04-03T01:21:39.308Z,99.99
2019-04-03T01:22:32.767Z,99.99
2019-04-03T01:22:33.360Z,99.99
2019-04-03T01:22:33.962Z,99.99
2019-04-03T01:22:35.566Z,99.99
2019-04-03T01:22:36.865Z,99.99
2019-04-03T01:22:37.312Z,99.99
2019-04-03T01:22:37.319Z,99.99
2019-04-03T01:22:37.345Z,99.99
2019-04-03T01:23:31.462Z,99.74
2019-04-03T01:23:32.034Z,99.55
2019-04-03T01:23:32.636Z,99.55
2019-04-03T01:23:33.235Z,99.84
2019-04-03T01:23:33.837Z,99.65
2019-04-03T01:23:37.018Z,99.74
2019-04-03T01:23:37.190Z,99.74
2019-04-03T01:23:37.995Z,99.74
2019-04-03T01:24:29.090Z,99.93
2019-04-03T01:24:29.831Z,99.74
2019-04-03T01:24:30.287Z,99.74
2019-04-03T01:24:30.894Z,99.99
2019-04-03T01:24:31.491Z,99.74
2019-04-03T01:24:32.147Z,99.74
2019-04-03T01:24:32.688Z,99.99
2019-04-03T01:24:33.287Z,99.99
2019-04-03T01:25:26.742Z,99.99
2019-04-03T01:25:27.341Z,99.74
2019-04-03T01:25:27.938Z,99.74
2019-04-03T01:25:28.538Z,99.84
2019-04-03T01:25:29.138Z,99.74
2019-04-03T01:25:29.738Z,99.74
2019-04-03T01:25:30.338Z,99.74
2019-04-03T01:25:30.938Z,99.74
2019-04-03T01:26:25.442Z,99.99
2019-04-03T01:26:26.014Z,99.99
2019-04-03T01:26:26.614Z,99.99
2019-04-03T01:26:27.214Z,99.99
2019-04-03T01:26:27.939Z,99.99
2019-04-03T01:26:28.415Z,99.99
2019-04-03T01:26:29.087Z,99.99
2019-04-03T01:26:29.614Z,99.99
2019-04-03T01:27:24.140Z,99.99
2019-04-03T01:27:24.690Z,99.99
2019-04-03T01:27:25.289Z,99.99
2019-04-03T01:27:25.890Z,99.99
2019-04-03T01:27:26.535Z,99.99
2019-04-03T01:27:27.090Z,99.99
2019-04-03T01:27:27.694Z,99.99
2019-04-03T01:27:28.289Z,99.99
2019-04-03T01:28:22.838Z,99.99
2019-04-03T01:28:23.364Z,99.99
2019-04-03T01:28:23.966Z,99.99
2019-04-03T01:28:24.566Z,99.99
2019-04-03T01:28:25.165Z,99.99
2019-04-03T01:28:25.766Z,99.99
2019-04-03T01:28:26.365Z,99.99
2019-04-03T01:28:26.965Z,99.99
2019-04-03T01:29:20.421Z,99.99
2019-04-03T01:29:21.018Z,99.99
2019-04-03T01:29:21.618Z,99.99
2019-04-03T01:29:22.218Z,99.99
2019-04-03T01:29:22.818Z,99.99
2019-04-03T01:29:23.418Z,99.99
2019-04-03T01:29:24.018Z,99.99
2019-04-03T01:29:24.616Z,99.99
2019-04-03T01:30:19.217Z,99.99
2019-04-03T01:30:19.692Z,99.99
2019-04-03T01:30:20.380Z,99.99
2019-04-03T01:30:20.892Z,99.99
2019-04-03T01:30:21.493Z,99.99
2019-04-03T01:30:22.100Z,99.99
2019-04-03T01:30:22.692Z,99.99
2019-04-03T01:30:23.291Z,99.99
2019-04-03T01:31:17.804Z,99.99
2019-04-03T01:31:18.371Z,99.99
2019-04-03T01:31:18.967Z,99.99
2019-04-03T01:31:19.570Z,99.99
2019-04-03T01:31:20.165Z,99.99
2019-04-03T01:31:20.768Z,99.99
2019-04-03T01:31:21.366Z,99.99
2019-04-03T01:31:21.966Z,99.99
2019-04-03T01:32:15.994Z,99.99
2019-04-03T01:32:16.246Z,99.99
2019-04-03T01:32:16.785Z,99.99
2019-04-03T01:32:17.219Z,99.99
2019-04-03T01:32:17.881Z,99.99
2019-04-03T01:32:18.421Z,99.99
2019-04-03T01:32:19.018Z,99.99
2019-04-03T01:32:19.618Z,99.99
2019-04-03T01:33:13.082Z,99.99
2019-04-03T01:33:14.820Z,99.99
2019-04-03T01:33:16.110Z,99.99
2019-04-03T01:33:16.438Z,99.99
2019-04-03T01:33:16.444Z,99.99
2019-04-03T01:33:16.446Z,99.99
2019-04-03T01:33:17.165Z,99.99
2019-04-03T01:33:17.271Z,99.99
2019-04-03T01:34:11.753Z,99.99
2019-04-03T01:34:12.350Z,99.99
2019-04-03T01:34:12.952Z,99.99
2019-04-03T01:34:13.549Z,99.99
2019-04-03T01:34:14.188Z,99.99
2019-04-03T01:34:17.200Z,99.99
2019-04-03T01:34:17.203Z,99.99
2019-04-03T01:34:17.812Z,99.99
2019-04-03T01:35:10.428Z,99.99
2019-04-03T01:35:11.110Z,99.99
2019-04-03T01:35:11.622Z,99.99
2019-04-03T01:35:12.223Z,99.99
2019-04-03T01:35:12.823Z,99.99
2019-04-03T01:35:13.422Z,99.99
2019-04-03T01:35:14.028Z,99.99
2019-04-03T01:35:15.693Z,99.99
2019-04-03T01:36:08.104Z,99.99
2019-04-03T01:36:08.676Z,99.99
2019-04-03T01:36:09.278Z,99.99
2019-04-03T01:36:09.876Z,99.99
2019-04-03T01:36:10.576Z,99.99
2019-04-03T01:36:11.076Z,99.99
2019-04-03T01:36:11.690Z,99.99
2019-04-03T01:36:12.276Z,99.99
2019-04-03T01:37:06.754Z,99.99
2019-04-03T01:37:07.353Z,99.99
2019-04-03T01:37:07.951Z,99.99
2019-04-03T01:37:08.551Z,99.99
2019-04-03T01:37:09.150Z,99.99
2019-04-03T01:37:09.751Z,99.99
2019-04-03T01:37:10.348Z,99.99
2019-04-03T01:37:11.042Z,99.99
2019-04-03T01:38:04.408Z,99.99
2019-04-03T01:38:05.004Z,99.99
2019-04-03T01:38:05.604Z,99.99
2019-04-03T01:38:06.205Z,99.99
2019-04-03T01:38:06.804Z,99.99
2019-04-03T01:38:07.524Z,99.99
2019-04-03T01:38:08.003Z,99.99
2019-04-03T01:38:08.671Z,99.99
2019-04-03T01:39:03.081Z,99.99
2019-04-03T01:39:03.713Z,99.99
2019-04-03T01:39:04.280Z,99.99
2019-04-03T01:39:04.878Z,99.99
2019-04-03T01:39:05.477Z,99.99
2019-04-03T01:39:06.081Z,99.99
2019-04-03T01:39:06.684Z,99.99
2019-04-03T01:39:07.281Z,99.99
2019-04-03T01:40:00.737Z,99.99
2019-04-03T01:40:01.331Z,99.99
2019-04-03T01:40:02.051Z,99.99
2019-04-03T01:40:02.530Z,99.99
2019-04-03T01:40:03.140Z,99.99
2019-04-03T01:40:03.731Z,99.99
2019-04-03T01:40:04.329Z,99.99
2019-04-03T01:40:04.931Z,99.99
2019-04-03T01:40:59.496Z,99.99
2019-04-03T01:41:00.005Z,99.99
2019-04-03T01:41:00.603Z,99.99
2019-04-03T01:41:01.204Z,99.99
2019-04-03T01:41:01.803Z,99.99
2019-04-03T01:41:02.403Z,99.99
2019-04-03T01:41:03.004Z,99.99
2019-04-03T01:41:03.792Z,99.99
2019-04-03T01:41:57.175Z,99.99
2019-04-03T01:41:57.658Z,99.99
2019-04-03T01:41:58.310Z,99.99
2019-04-03T01:41:58.863Z,99.99
2019-04-03T01:41:59.570Z,99.99
2019-04-03T01:42:00.060Z,99.99
2019-04-03T01:42:00.657Z,99.99
2019-04-03T01:42:01.257Z,99.99
2019-04-03T01:42:54.714Z,99.99
2019-04-03T01:42:55.315Z,99.99
2019-04-03T01:42:55.924Z,99.99
2019-04-03T01:42:56.508Z,99.99
2019-04-03T01:42:57.109Z,99.99
2019-04-03T01:42:57.710Z,99.99
2019-04-03T01:42:58.307Z,99.99
2019-04-03T01:42:58.914Z,99.99
2019-04-03T01:43:54.250Z,99.99
2019-04-03T01:43:54.381Z,99.99
2019-04-03T01:43:54.588Z,99.99
2019-04-03T01:43:55.326Z,99.99
2019-04-03T01:43:55.784Z,99.99
2019-04-03T01:43:56.390Z,99.99
2019-04-03T01:43:56.984Z,99.99
2019-04-03T01:43:57.584Z,99.99
2019-04-03T01:44:51.040Z,99.99
2019-04-03T01:44:51.637Z,99.99
2019-04-03T01:44:55.031Z,99.99
2019-04-03T01:44:55.100Z,99.99
2019-04-03T01:44:55.124Z,99.99
2019-04-03T01:44:55.421Z,99.99
2019-04-03T01:44:55.473Z,99.99
2019-04-03T01:44:56.003Z,99.99
2019-04-03T01:45:48.692Z,99.99
2019-04-03T01:45:49.290Z,99.99
2019-04-03T01:45:49.889Z,99.99
2019-04-03T01:45:50.488Z,99.99
2019-04-03T01:45:51.089Z,99.99
2019-04-03T01:45:51.689Z,99.99
2019-04-03T01:45:52.289Z,99.99
2019-04-03T01:45:52.892Z,99.99
2019-04-03T01:46:46.511Z,99.99
2019-04-03T01:46:46.941Z,99.99
2019-04-03T01:46:47.796Z,99.99
2019-04-03T01:46:48.142Z,99.99
2019-04-03T01:46:48.741Z,99.99
2019-04-03T01:46:49.341Z,99.99
2019-04-03T01:46:50.072Z,99.99
2019-04-03T01:46:50.543Z,99.99
2019-04-03T01:47:43.995Z,99.99
2019-04-03T01:47:44.591Z,99.99
2019-04-03T01:47:45.193Z,99.99
2019-04-03T01:47:45.802Z,99.99
2019-04-03T01:47:46.587Z,99.99
2019-04-03T01:47:46.992Z,99.99
2019-04-03T01:47:47.682Z,99.99
2019-04-03T01:47:48.194Z,99.99
2019-04-03T01:48:42.671Z,99.99
2019-04-03T01:48:43.447Z,99.99
2019-04-03T01:48:43.870Z,99.99
2019-04-03T01:48:44.527Z,99.99
2019-04-03T01:48:45.066Z,99.99
2019-04-03T01:48:45.725Z,99.99
2019-04-03T01:48:46.265Z,99.99
2019-04-03T01:48:46.868Z,99.99
2019-04-03T01:49:41.346Z,99.99
2019-04-03T01:49:41.942Z,99.99
2019-04-03T01:49:42.542Z,99.99
2019-04-03T01:49:43.143Z,99.99
2019-04-03T01:49:43.743Z,99.99
2019-04-03T01:49:44.344Z,99.99
2019-04-03T01:49:45.067Z,99.99
2019-04-03T01:49:45.546Z,99.99
2019-04-03T01:50:40.021Z,99.99
2019-04-03T01:50:40.620Z,99.99
2019-04-03T01:50:41.220Z,99.99
2019-04-03T01:50:41.819Z,99.99
2019-04-03T01:50:42.419Z,99.99
2019-04-03T01:50:43.140Z,99.99
2019-04-03T01:50:43.618Z,99.99
2019-04-03T01:50:44.218Z,99.99
2019-04-03T01:51:37.675Z,99.93
2019-04-03T01:51:38.271Z,99.99
2019-04-03T01:51:38.872Z,99.99
2019-04-03T01:51:39.471Z,99.99
2019-04-03T01:51:40.072Z,99.99
2019-04-03T01:51:40.671Z,99.99
2019-04-03T01:51:41.270Z,99.99
2019-04-03T01:51:41.873Z,99.99
2019-04-03T01:52:36.382Z,99.74
2019-04-03T01:52:36.945Z,99.65
2019-04-03T01:52:37.545Z,99.84
2019-04-03T01:52:38.146Z,99.84
2019-04-03T01:52:38.745Z,99.84
2019-04-03T01:52:39.352Z,99.84
2019-04-03T01:52:40.062Z,99.84
2019-04-03T01:52:40.545Z,99.74
2019-04-03T01:53:34.034Z,99.46
2019-04-03T01:53:34.599Z,99.08
2019-04-03T01:53:35.201Z,99.08
2019-04-03T01:53:35.798Z,99.08
2019-04-03T01:53:36.400Z,99.08
2019-04-03T01:53:37.000Z,99.27
2019-04-03T01:53:37.598Z,99.46
2019-04-03T01:53:38.197Z,99.17
2019-04-03T01:54:33.261Z,99.36
2019-04-03T01:54:33.712Z,99.55
2019-04-03T01:54:33.727Z,99.55
2019-04-03T01:54:34.035Z,99.55
2019-04-03T01:54:34.118Z,99.65
2019-04-03T01:54:34.755Z,99.55
2019-04-03T01:54:35.250Z,99.65
2019-04-03T01:54:35.867Z,99.27
2019-04-03T01:55:29.308Z,99.93
2019-04-03T01:55:29.905Z,99.74
2019-04-03T01:55:30.504Z,99.74
2019-04-03T01:55:31.103Z,99.84
2019-04-03T01:55:34.009Z,99.84
2019-04-03T01:55:34.097Z,99.84
2019-04-03T01:55:34.493Z,99.65
2019-04-03T01:55:34.732Z,99.84
2019-04-03T01:56:26.987Z,99.74
2019-04-03T01:56:27.554Z,99.99
2019-04-03T01:56:28.223Z,99.99
2019-04-03T01:56:28.755Z,99.99
2019-04-03T01:56:29.356Z,99.99
2019-04-03T01:56:29.956Z,99.99
2019-04-03T01:56:30.554Z,99.99
2019-04-03T01:56:31.153Z,99.99
2019-04-03T01:57:25.657Z,99.99
2019-04-03T01:57:26.251Z,99.74
2019-04-03T01:57:26.832Z,99.99
2019-04-03T01:57:27.429Z,99.99
2019-04-03T01:57:28.028Z,99.65
2019-04-03T01:57:28.630Z,99.65
2019-04-03T01:57:29.231Z,99.99
2019-04-03T01:57:29.829Z,99.93
2019-04-03T01:58:23.287Z,99.74
2019-04-03T01:58:23.881Z,99.74
2019-04-03T01:58:24.689Z,99.84
2019-04-03T01:58:25.081Z,99.74
2019-04-03T01:58:25.765Z,99.84
2019-04-03T01:58:26.283Z,99.84
2019-04-03T01:58:26.881Z,99.93
2019-04-03T01:58:27.482Z,99.74
2019-04-03T01:59:21.963Z,99.74
2019-04-03T01:59:22.557Z,99.65
2019-04-03T01:59:23.155Z,99.55
2019-04-03T01:59:23.755Z,99.65
2019-04-03T01:59:24.355Z,99.65